Time;durP1;ratioP1;P1;durP2;ratioP2;P2;SDS_P1;SDS_P2;PMS_P1;PMS_P2;Temp;Humidity;BMP_temperature;BMP_pressure;BME280_temperature;BME280_humidity;BME280_pressure;Samples;Min_cycle;Max_cycle;Signal;HPM_P1;HPM_P2
2022/12/09 00:00:27;;;;;;;21.27;13.20;;;;;;;;;;742845;186;919401;-61
2022/12/09 00:02:53;;;;;;;19.97;13.13;;;;;;;;;;736421;190;918244;-59
2022/12/09 00:05:18;;;;;;;17.33;11.93;;;;;;;;;;756674;186;818365;-61
2022/12/09 00:07:44;;;;;;;28.70;14.13;;;;;;;;;;750922;186;616647;-60
2022/12/09 00:10:10;;;;;;;18.30;12.93;;;;;;;;;;749364;186;629131;-60
2022/12/09 00:12:36;;;;;;;18.60;13.40;;;;;;;;;;754624;187;625519;-59
2022/12/09 00:15:02;;;;;;;19.63;13.07;;;;;;;;;;750299;187;626109;-61
2022/12/09 00:17:28;;;;;;;21.03;15.00;;;;;;;;;;747747;187;818114;-59
2022/12/09 00:19:54;;;;;;;20.63;12.23;;;;;;;;;;751070;187;918223;-58
2022/12/09 00:22:19;;;;;;;18.62;12.18;;;;;;;;;;756841;186;916553;-62
2022/12/09 00:24:45;;;;;;;20.87;13.00;;;;;;;;;;744992;186;926992;-60
2022/12/09 00:27:11;;;;;;;18.77;11.90;;;;;;;;;;734731;190;1043134;-59
2022/12/09 00:29:37;;;;;;;18.60;12.35;;;;;;;;;;740282;187;915427;-61
2022/12/09 00:32:03;;;;;;;22.07;13.47;;;;;;;;;;735444;190;918916;-61
2022/12/09 00:34:29;;;;;;;17.97;12.30;;;;;;;;;;734971;188;922506;-58
2022/12/09 00:36:55;;;;;;;17.37;12.80;;;;;;;;;;742663;190;918664;-60
2022/12/09 00:39:20;;;;;;;20.33;11.93;;;;;;;;;;716640;192;919443;-61
2022/12/09 00:41:47;;;;;;;16.57;11.40;;;;;;;;;;752007;186;917013;-62
2022/12/09 00:44:12;;;;;;;21.30;12.80;;;;;;;;;;751388;186;921283;-61
2022/12/09 00:46:38;;;;;;;18.93;13.80;;;;;;;;;;746777;184;918455;-60
2022/12/09 00:49:05;;;;;;;17.67;11.52;;;;;;;;;;742714;186;919545;-60
2022/12/09 00:51:31;;;;;;;17.23;12.07;;;;;;;;;;750279;185;915768;-59
2022/12/09 00:53:56;;;;;;;17.27;10.73;;;;;;;;;;757656;186;920264;-61
2022/12/09 00:56:22;;;;;;;21.40;13.87;;;;;;;;;;747008;185;921759;-61
2022/12/09 00:58:48;;;;;;;18.00;11.60;;;;;;;;;;736668;190;918569;-61
2022/12/09 01:01:14;;;;;;;19.03;12.70;;;;;;;;;;750727;187;816304;-61
2022/12/09 01:03:40;;;;;;;18.97;12.17;;;;;;;;;;736439;187;920630;-59
2022/12/09 01:06:07;;;;;;;20.10;12.47;;;;;;;;;;736600;186;817193;-60
2022/12/09 01:08:32;;;;;;;19.50;12.57;;;;;;;;;;736343;190;818768;-60
2022/12/09 01:10:58;;;;;;;17.20;11.63;;;;;;;;;;745819;187;916326;-59
2022/12/09 01:13:24;;;;;;;16.70;11.60;;;;;;;;;;747333;187;919156;-62
2022/12/09 01:15:50;;;;;;;18.30;12.50;;;;;;;;;;746601;187;919252;-60
2022/12/09 01:18:16;;;;;;;20.00;14.23;;;;;;;;;;755821;186;873700;-60
2022/12/09 01:20:42;;;;;;;20.42;13.02;;;;;;;;;;739225;190;915926;-61
2022/12/09 01:23:07;;;;;;;18.27;11.90;;;;;;;;;;732981;190;919309;-60
2022/12/09 01:25:33;;;;;;;22.27;13.50;;;;;;;;;;752663;186;915683;-61
2022/12/09 01:27:59;;;;;;;17.77;11.80;;;;;;;;;;745560;187;918904;-61
2022/12/09 01:30:25;;;;;;;20.30;12.70;;;;;;;;;;736258;190;914252;-60
2022/12/09 01:32:51;;;;;;;18.90;13.20;;;;;;;;;;737885;190;910973;-60
2022/12/09 01:35:17;;;;;;;19.57;13.60;;;;;;;;;;734581;190;919101;-61
2022/12/09 01:37:43;;;;;;;20.07;13.77;;;;;;;;;;736092;190;918643;-61
2022/12/09 01:40:09;;;;;;;19.37;12.50;;;;;;;;;;740207;186;919266;-61
2022/12/09 01:42:35;;;;;;;20.20;14.40;;;;;;;;;;754284;186;916981;-60
2022/12/09 01:45:16;;;;;;;19.57;12.73;;;;;;;;;;739565;186;919496;-61
2022/12/09 01:47:41;;;;;;;21.43;13.27;;;;;;;;;;747082;187;816649;-60
2022/12/09 01:50:07;;;;;;;19.77;13.73;;;;;;;;;;744669;187;920130;-61
2022/12/09 01:52:33;;;;;;;20.30;13.13;;;;;;;;;;737353;187;916830;-62
2022/12/09 01:54:59;;;;;;;19.50;12.93;;;;;;;;;;737515;189;819010;-60
2022/12/09 01:57:25;;;;;;;17.73;12.40;;;;;;;;;;739848;187;918858;-62
2022/12/09 01:59:51;;;;;;;21.80;14.27;;;;;;;;;;743379;188;819680;-60
2022/12/09 02:02:17;;;;;;;21.53;14.27;;;;;;;;;;746109;185;920199;-61
2022/12/09 02:04:44;;;;;;;17.73;11.23;;;;;;;;;;750393;186;918661;-59
2022/12/09 02:07:09;;;;;;;21.42;13.90;;;;;;;;;;747544;186;918875;-60
2022/12/09 02:09:34;;;;;;;17.33;13.23;;;;;;;;;;755612;183;816293;-61
2022/12/09 02:12:04;;;;;;;25.30;14.53;;;;;;;;;;750258;187;818613;-61
2022/12/09 02:14:30;;;;;;;18.47;13.43;;;;;;;;;;734575;190;916998;-61
2022/12/09 02:17:01;;;;;;;20.20;13.27;;;;;;;;;;732222;193;918999;-59
2022/12/09 02:19:43;;;;;;;17.63;11.77;;;;;;;;;;732131;191;916460;-61
2022/12/09 02:22:09;;;;;;;17.17;12.00;;;;;;;;;;754314;186;854961;-61
2022/12/09 02:24:36;;;;;;;18.75;13.20;;;;;;;;;;752272;186;918697;-60
2022/12/09 02:27:03;;;;;;;17.50;11.70;;;;;;;;;;747435;186;921474;-61
2022/12/09 02:29:31;;;;;;;19.50;12.90;;;;;;;;;;756006;186;910313;-61
2022/12/09 02:32:15;;;;;;;18.23;11.40;;;;;;;;;;735214;186;916413;-60
2022/12/09 02:34:41;;;;;;;21.53;12.80;;;;;;;;;;750943;187;919712;-60
2022/12/09 02:37:11;;;;;;;19.43;11.80;;;;;;;;;;744923;187;918878;-61
2022/12/09 02:39:52;;;;;;;17.17;12.13;;;;;;;;;;728148;190;919218;-61
2022/12/09 02:42:18;;;;;;;16.27;12.07;;;;;;;;;;744425;187;922413;-61
2022/12/09 02:44:44;;;;;;;18.77;11.93;;;;;;;;;;734770;191;919609;-61
2022/12/09 02:47:10;;;;;;;19.70;13.57;;;;;;;;;;751069;187;912153;-59
2022/12/09 02:49:36;;;;;;;16.77;12.60;;;;;;;;;;727513;191;897277;-60
2022/12/09 02:52:02;;;;;;;19.87;13.00;;;;;;;;;;741271;190;819069;-61
2022/12/09 02:54:28;;;;;;;23.20;14.40;;;;;;;;;;732170;190;918723;-60
2022/12/09 02:56:54;;;;;;;22.90;14.03;;;;;;;;;;735230;190;922807;-61
2022/12/09 02:59:20;;;;;;;22.63;14.50;;;;;;;;;;743266;190;910757;-62
2022/12/09 03:01:52;;;;;;;18.73;12.40;;;;;;;;;;740248;187;885451;-59
2022/12/09 03:04:18;;;;;;;18.17;13.33;;;;;;;;;;729758;190;919298;-59
2022/12/09 03:06:43;;;;;;;20.40;12.83;;;;;;;;;;734406;186;919043;-59
2022/12/09 03:09:09;;;;;;;20.27;13.13;;;;;;;;;;738855;190;910460;-61
2022/12/09 03:11:35;;;;;;;20.80;12.57;;;;;;;;;;739929;187;916949;-61
2022/12/09 03:14:08;;;;;;;18.20;12.73;;;;;;;;;;736276;186;1021599;-61
2022/12/09 03:16:34;;;;;;;19.00;13.40;;;;;;;;;;741227;185;923970;-60
2022/12/09 03:19:00;;;;;;;20.90;13.57;;;;;;;;;;754222;186;914710;-61
2022/12/09 03:21:25;;;;;;;22.60;13.18;;;;;;;;;;748239;185;926403;-62
2022/12/09 03:23:51;;;;;;;21.10;13.33;;;;;;;;;;748415;186;919876;-61
2022/12/09 03:26:17;;;;;;;20.53;12.87;;;;;;;;;;746153;187;919831;-60
2022/12/09 03:28:43;;;;;;;22.93;15.00;;;;;;;;;;739486;190;921871;-59
2022/12/09 03:31:09;;;;;;;19.83;12.43;;;;;;;;;;736891;190;920794;-59
2022/12/09 03:33:35;;;;;;;21.30;13.45;;;;;;;;;;744822;188;718440;-61
2022/12/09 03:36:01;;;;;;;21.90;13.90;;;;;;;;;;737299;189;919018;-59
2022/12/09 03:38:26;;;;;;;21.50;14.80;;;;;;;;;;743997;187;919780;-60
2022/12/09 03:40:53;;;;;;;18.20;13.57;;;;;;;;;;744687;187;905455;-60
2022/12/09 03:43:19;;;;;;;20.50;12.90;;;;;;;;;;755413;183;920722;-59
2022/12/09 03:45:46;;;;;;;19.80;13.77;;;;;;;;;;742512;187;919357;-58
2022/12/09 03:48:11;;;;;;;20.20;14.03;;;;;;;;;;733260;189;918635;-60
2022/12/09 03:50:38;;;;;;;24.20;14.57;;;;;;;;;;742945;187;916630;-60
2022/12/09 03:53:04;;;;;;;23.83;16.20;;;;;;;;;;750845;187;625738;-59
2022/12/09 03:55:35;;;;;;;26.70;16.90;;;;;;;;;;744582;187;915820;-62
2022/12/09 03:58:02;;;;;;;34.30;20.90;;;;;;;;;;738202;190;637238;-60
2022/12/09 04:00:26;;;;;;;20.83;15.70;;;;;;;;;;736957;190;619317;-59
2022/12/09 04:02:52;;;;;;;23.47;16.07;;;;;;;;;;740955;186;629321;-61
2022/12/09 04:05:18;;;;;;;23.27;15.80;;;;;;;;;;746818;186;902840;-60
2022/12/09 04:07:44;;;;;;;21.37;15.60;;;;;;;;;;749049;186;825803;-62
2022/12/09 04:10:10;;;;;;;24.80;16.83;;;;;;;;;;745343;186;919860;-62
2022/12/09 04:12:36;;;;;;;27.50;16.77;;;;;;;;;;747515;186;916169;-60
2022/12/09 04:15:02;;;;;;;27.27;18.43;;;;;;;;;;750197;186;770417;-59
2022/12/09 04:17:27;;;;;;;22.70;15.43;;;;;;;;;;743579;186;920945;-61
2022/12/09 04:19:53;;;;;;;25.50;16.13;;;;;;;;;;727678;190;919811;-58
2022/12/09 04:22:19;;;;;;;24.27;16.97;;;;;;;;;;735853;190;817074;-58
2022/12/09 04:24:45;;;;;;;30.47;19.63;;;;;;;;;;733152;185;918573;-61
2022/12/09 04:27:11;;;;;;;25.70;17.03;;;;;;;;;;742868;186;929979;-59
2022/12/09 04:29:37;;;;;;;29.07;18.30;;;;;;;;;;743485;186;864024;-61
2022/12/09 04:32:03;;;;;;;27.90;18.20;;;;;;;;;;743474;187;933059;-60
2022/12/09 04:34:28;;;;;;;25.70;16.10;;;;;;;;;;746241;186;918750;-59
2022/12/09 04:36:54;;;;;;;27.97;19.07;;;;;;;;;;744933;186;914994;-58
2022/12/09 04:39:20;;;;;;;28.90;18.93;;;;;;;;;;751851;186;918494;-61
2022/12/09 04:41:46;;;;;;;30.05;20.15;;;;;;;;;;747847;186;913216;-60
2022/12/09 04:44:12;;;;;;;25.53;17.80;;;;;;;;;;732442;186;919563;-60
2022/12/09 04:46:38;;;;;;;26.13;16.90;;;;;;;;;;743450;186;921017;-59
2022/12/09 04:49:03;;;;;;;30.07;19.43;;;;;;;;;;733504;189;923683;-59
2022/12/09 04:51:29;;;;;;;28.23;16.80;;;;;;;;;;735833;190;816451;-60
2022/12/09 04:53:55;;;;;;;24.30;16.27;;;;;;;;;;733732;190;917927;-61
2022/12/09 04:56:21;;;;;;;23.80;16.13;;;;;;;;;;746050;187;819257;-62
2022/12/09 04:58:47;;;;;;;26.03;17.37;;;;;;;;;;734285;189;919662;-62
2022/12/09 05:01:13;;;;;;;29.50;18.77;;;;;;;;;;741912;186;919617;-60
2022/12/09 05:03:39;;;;;;;30.03;18.60;;;;;;;;;;751213;186;918678;-60
2022/12/09 05:06:05;;;;;;;28.20;18.77;;;;;;;;;;739196;186;919872;-58
2022/12/09 05:08:31;;;;;;;33.37;18.10;;;;;;;;;;746089;186;876598;-60
2022/12/09 05:10:57;;;;;;;28.57;18.13;;;;;;;;;;746919;186;918201;-62
2022/12/09 05:13:25;;;;;;;26.63;16.13;;;;;;;;;;752327;187;919900;-61
2022/12/09 05:15:49;;;;;;;26.00;16.40;;;;;;;;;;736045;190;919397;-58
2022/12/09 05:18:15;;;;;;;26.50;16.17;;;;;;;;;;745951;186;921623;-60
2022/12/09 05:20:41;;;;;;;27.00;17.33;;;;;;;;;;750477;187;741495;-61
2022/12/09 05:23:07;;;;;;;21.80;15.07;;;;;;;;;;732071;190;920501;-61
2022/12/09 05:25:32;;;;;;;27.77;17.10;;;;;;;;;;747928;186;919081;-60
2022/12/09 05:27:58;;;;;;;30.43;17.17;;;;;;;;;;752123;187;631412;-62
2022/12/09 05:30:24;;;;;;;25.60;16.27;;;;;;;;;;742790;187;713777;-62
2022/12/09 05:32:50;;;;;;;29.45;18.52;;;;;;;;;;749541;186;918129;-61
2022/12/09 05:35:16;;;;;;;26.30;17.37;;;;;;;;;;736627;187;918544;-60
2022/12/09 05:37:41;;;;;;;23.97;16.73;;;;;;;;;;734033;186;918720;-59
2022/12/09 05:40:08;;;;;;;26.83;17.40;;;;;;;;;;741416;186;918039;-61
2022/12/09 05:42:33;;;;;;;26.73;17.03;;;;;;;;;;749303;186;870092;-58
2022/12/09 05:44:59;;;;;;;29.77;17.83;;;;;;;;;;744897;185;818890;-61
2022/12/09 05:47:25;;;;;;;27.80;17.00;;;;;;;;;;745864;186;634688;-62
2022/12/09 05:49:51;;;;;;;27.77;17.60;;;;;;;;;;734686;189;816668;-61
2022/12/09 05:52:17;;;;;;;26.57;18.57;;;;;;;;;;748485;186;817868;-59
2022/12/09 05:54:43;;;;;;;34.17;20.57;;;;;;;;;;729517;189;816047;-61
2022/12/09 05:57:09;;;;;;;36.20;23.90;;;;;;;;;;738344;187;916049;-62
2022/12/09 05:59:34;;;;;;;36.97;23.03;;;;;;;;;;745101;186;712963;-60
2022/12/09 06:02:00;;;;;;;32.00;21.47;;;;;;;;;;743415;186;817515;-61
2022/12/09 06:04:26;;;;;;;32.10;21.40;;;;;;;;;;739672;186;717464;-59
2022/12/09 06:06:52;;;;;;;42.23;25.30;;;;;;;;;;756161;186;637691;-62
2022/12/09 06:09:18;;;;;;;44.83;27.37;;;;;;;;;;742062;186;917433;-61
2022/12/09 06:11:44;;;;;;;44.80;24.92;;;;;;;;;;738224;186;821393;-61
2022/12/09 06:14:10;;;;;;;27.77;19.20;;;;;;;;;;744429;186;820308;-59
2022/12/09 06:16:35;;;;;;;28.77;20.87;;;;;;;;;;738374;187;918811;-59
2022/12/09 06:19:01;;;;;;;38.43;22.93;;;;;;;;;;727810;190;905543;-59
2022/12/09 06:21:27;;;;;;;35.40;21.33;;;;;;;;;;740409;187;818026;-60
2022/12/09 06:23:53;;;;;;;36.42;21.73;;;;;;;;;;749220;186;914219;-59
2022/12/09 06:26:19;;;;;;;30.17;19.63;;;;;;;;;;736534;186;912593;-62
2022/12/09 06:28:44;;;;;;;27.30;17.02;;;;;;;;;;731837;186;914793;-60
2022/12/09 06:31:10;;;;;;;26.83;17.60;;;;;;;;;;742636;186;920185;-59
2022/12/09 06:33:37;;;;;;;34.13;17.67;;;;;;;;;;739231;186;816397;-59
2022/12/09 06:36:03;;;;;;;29.83;17.80;;;;;;;;;;738902;186;919228;-59
2022/12/09 06:38:29;;;;;;;30.90;19.93;;;;;;;;;;738961;186;918778;-61
2022/12/09 06:40:55;;;;;;;28.53;19.50;;;;;;;;;;749524;186;918716;-59
2022/12/09 06:43:21;;;;;;;26.47;16.10;;;;;;;;;;733405;190;916491;-61
2022/12/09 06:45:47;;;;;;;24.83;15.40;;;;;;;;;;746333;186;926140;-59
2022/12/09 06:48:12;;;;;;;24.07;15.23;;;;;;;;;;750966;186;914414;-60
2022/12/09 06:50:38;;;;;;;22.07;14.13;;;;;;;;;;745004;186;918317;-64
2022/12/09 06:53:04;;;;;;;27.65;17.27;;;;;;;;;;744543;186;818453;-62
2022/12/09 06:55:30;;;;;;;29.40;17.17;;;;;;;;;;741331;188;625430;-62
2022/12/09 06:57:56;;;;;;;33.70;19.93;;;;;;;;;;747433;186;654489;-60
2022/12/09 07:00:22;;;;;;;47.00;28.43;;;;;;;;;;748637;187;620099;-59
2022/12/09 07:02:47;;;;;;;34.03;21.50;;;;;;;;;;752110;187;632960;-60
2022/12/09 07:05:13;;;;;;;38.07;26.23;;;;;;;;;;745278;187;905730;-60
2022/12/09 07:07:39;;;;;;;71.00;40.20;;;;;;;;;;748190;187;918355;-60
2022/12/09 07:10:05;;;;;;;44.57;28.60;;;;;;;;;;738438;186;816861;-61
2022/12/09 07:12:32;;;;;;;51.67;29.00;;;;;;;;;;750748;186;915311;-60
2022/12/09 07:14:58;;;;;;;39.13;22.20;;;;;;;;;;741872;190;622089;-59
2022/12/09 07:17:24;;;;;;;106.27;49.80;;;;;;;;;;743214;186;621080;-59
2022/12/09 07:19:50;;;;;;;53.20;28.70;;;;;;;;;;738705;190;626981;-59
2022/12/09 07:22:16;;;;;;;43.30;24.57;;;;;;;;;;741471;187;626805;-59
2022/12/09 07:24:41;;;;;;;43.90;25.83;;;;;;;;;;747609;187;919807;-61
2022/12/09 07:27:07;;;;;;;45.87;24.83;;;;;;;;;;750356;186;917045;-61
2022/12/09 07:29:33;;;;;;;53.80;24.40;;;;;;;;;;740136;190;816996;-61
2022/12/09 07:31:59;;;;;;;93.17;40.67;;;;;;;;;;732703;190;910027;-60
2022/12/09 07:34:25;;;;;;;136.30;58.87;;;;;;;;;;737053;189;914486;-59
2022/12/09 07:36:51;;;;;;;157.07;65.73;;;;;;;;;;743484;187;1023530;-60
2022/12/09 07:39:17;;;;;;;52.45;28.45;;;;;;;;;;746106;186;916577;-59
2022/12/09 07:41:42;;;;;;;43.17;24.00;;;;;;;;;;732472;189;919399;-59
2022/12/09 07:44:09;;;;;;;73.93;38.57;;;;;;;;;;737334;190;918718;-59
2022/12/09 07:46:34;;;;;;;45.00;26.57;;;;;;;;;;738639;186;919873;-60
2022/12/09 07:49:00;;;;;;;52.00;27.20;;;;;;;;;;743634;188;918998;-61
2022/12/09 07:51:28;;;;;;;47.73;26.13;;;;;;;;;;744838;187;919204;-59
2022/12/09 07:53:52;;;;;;;39.47;24.50;;;;;;;;;;739934;186;927248;-59
2022/12/09 07:56:18;;;;;;;36.73;20.60;;;;;;;;;;739332;187;918624;-60
2022/12/09 07:58:43;;;;;;;29.03;19.73;;;;;;;;;;734323;188;818058;-59
2022/12/09 08:01:09;;;;;;;30.87;19.37;;;;;;;;;;740781;187;919239;-58
2022/12/09 08:03:35;;;;;;;35.50;20.40;;;;;;;;;;751811;186;817423;-60
2022/12/09 08:06:01;;;;;;;27.73;19.23;;;;;;;;;;743895;186;915513;-58
2022/12/09 08:08:27;;;;;;;41.80;23.70;;;;;;;;;;753692;186;818042;-60
2022/12/09 08:10:53;;;;;;;34.03;20.57;;;;;;;;;;749549;186;918480;-60
2022/12/09 08:13:19;;;;;;;39.40;21.97;;;;;;;;;;743983;186;920812;-61
2022/12/09 08:15:44;;;;;;;51.80;27.17;;;;;;;;;;747621;188;919396;-57
2022/12/09 08:18:10;;;;;;;50.13;29.77;;;;;;;;;;734063;189;917580;-60
2022/12/09 08:20:36;;;;;;;47.60;24.93;;;;;;;;;;740890;190;637148;-58
2022/12/09 08:23:02;;;;;;;45.27;25.40;;;;;;;;;;744739;186;625224;-59
2022/12/09 08:25:28;;;;;;;67.07;32.37;;;;;;;;;;754890;187;615230;-58
2022/12/09 08:27:54;;;;;;;99.00;42.35;;;;;;;;;;742527;187;819042;-59
2022/12/09 08:30:20;;;;;;;92.77;44.33;;;;;;;;;;741320;186;914156;-59
2022/12/09 08:32:46;;;;;;;54.90;30.77;;;;;;;;;;748848;187;818266;-61
2022/12/09 08:35:13;;;;;;;44.83;28.50;;;;;;;;;;728350;190;814192;-61
2022/12/09 08:37:37;;;;;;;31.37;20.10;;;;;;;;;;752775;186;626120;-61
2022/12/09 08:40:03;;;;;;;47.17;28.70;;;;;;;;;;753358;186;625019;-60
2022/12/09 08:42:29;;;;;;;54.53;33.80;;;;;;;;;;749709;186;816542;-62
2022/12/09 08:44:55;;;;;;;31.07;21.80;;;;;;;;;;748528;186;914228;-59
2022/12/09 08:47:21;;;;;;;46.93;30.07;;;;;;;;;;745006;186;920007;-61
2022/12/09 08:49:46;;;;;;;41.33;26.00;;;;;;;;;;733595;190;918216;-59
2022/12/09 08:52:12;;;;;;;34.73;21.80;;;;;;;;;;750609;187;911015;-59
2022/12/09 08:54:38;;;;;;;55.20;30.75;;;;;;;;;;736368;186;916828;-59
2022/12/09 08:57:04;;;;;;;280.00;90.07;;;;;;;;;;746367;187;917738;-58
2022/12/09 08:59:30;;;;;;;407.73;131.37;;;;;;;;;;737661;186;919536;-62
2022/12/09 09:01:56;;;;;;;70.87;30.53;;;;;;;;;;732617;190;918408;-58
2022/12/09 09:04:22;;;;;;;46.73;26.53;;;;;;;;;;744129;186;919983;-59
2022/12/09 09:06:48;;;;;;;37.90;20.65;;;;;;;;;;744051;186;919982;-60
2022/12/09 09:09:13;;;;;;;42.43;24.73;;;;;;;;;;741931;187;918998;-58
2022/12/09 09:11:39;;;;;;;46.80;23.93;;;;;;;;;;747348;185;915323;-62
2022/12/09 09:14:05;;;;;;;41.93;27.20;;;;;;;;;;745676;186;915991;-58
2022/12/09 09:16:31;;;;;;;39.90;23.00;;;;;;;;;;738200;187;816880;-61
2022/12/09 09:18:57;;;;;;;36.47;20.90;;;;;;;;;;738982;186;816241;-61
2022/12/09 09:21:23;;;;;;;38.85;24.45;;;;;;;;;;745586;187;919036;-58
2022/12/09 09:23:48;;;;;;;35.37;22.90;;;;;;;;;;744248;187;919541;-59
2022/12/09 09:26:15;;;;;;;36.07;21.17;;;;;;;;;;743616;186;919172;-60
2022/12/09 09:28:41;;;;;;;31.03;20.07;;;;;;;;;;747096;186;917558;-60
2022/12/09 09:31:07;;;;;;;34.67;21.00;;;;;;;;;;735365;190;919623;-61
2022/12/09 09:33:33;;;;;;;99.30;36.42;;;;;;;;;;732117;190;873774;-59
2022/12/09 09:35:58;;;;;;;40.73;24.17;;;;;;;;;;723160;193;918711;-60
2022/12/09 09:38:24;;;;;;;43.83;24.90;;;;;;;;;;731888;189;919115;-59
2022/12/09 09:40:50;;;;;;;37.13;22.93;;;;;;;;;;729739;190;919840;-60
2022/12/09 09:43:16;;;;;;;76.63;43.73;;;;;;;;;;746494;186;920895;-60
2022/12/09 09:45:42;;;;;;;41.40;25.13;;;;;;;;;;746425;186;919371;-61
2022/12/09 09:48:08;;;;;;;43.30;26.73;;;;;;;;;;733835;186;914268;-60
2022/12/09 09:50:37;;;;;;;57.73;32.33;;;;;;;;;;729004;190;838765;-62
2022/12/09 09:53:08;;;;;;;44.40;22.47;;;;;;;;;;739466;186;918948;-59
2022/12/09 09:55:35;;;;;;;75.77;37.10;;;;;;;;;;733495;189;921416;-61
2022/12/09 09:58:01;;;;;;;63.33;42.73;;;;;;;;;;748429;186;855482;-61
2022/12/09 10:00:26;;;;;;;48.55;30.20;;;;;;;;;;753158;186;815129;-64
2022/12/09 10:02:53;;;;;;;44.87;30.50;;;;;;;;;;756961;186;821564;-63
2022/12/09 10:05:21;;;;;;;53.17;30.00;;;;;;;;;;748494;186;817165;-63
2022/12/09 10:07:50;;;;;;;92.83;46.17;;;;;;;;;;733417;186;923473;-63
2022/12/09 10:10:29;;;;;;;117.53;58.67;;;;;;;;;;731334;190;914449;-62
2022/12/09 10:12:55;;;;;;;83.70;46.87;;;;;;;;;;749269;186;919677;-65
2022/12/09 10:15:22;;;;;;;51.63;33.23;;;;;;;;;;736321;186;948114;-63
2022/12/09 10:17:48;;;;;;;45.27;25.27;;;;;;;;;;745919;187;920543;-62
2022/12/09 10:20:14;;;;;;;35.25;21.80;;;;;;;;;;743089;187;937053;-63
2022/12/09 10:22:42;;;;;;;34.70;19.97;;;;;;;;;;745115;185;919215;-62
2022/12/09 10:25:13;;;;;;;37.23;21.97;;;;;;;;;;742867;186;923525;-62
2022/12/09 10:27:42;;;;;;;37.40;26.60;;;;;;;;;;751022;186;872908;-62
2022/12/09 10:30:09;;;;;;;71.13;42.90;;;;;;;;;;750375;186;816451;-62
2022/12/09 10:32:35;;;;;;;41.47;26.03;;;;;;;;;;744890;190;629955;-62
2022/12/09 10:35:01;;;;;;;32.60;17.20;;;;;;;;;;738474;190;914320;-62
2022/12/09 10:37:28;;;;;;;54.63;34.53;;;;;;;;;;736200;189;823929;-62
2022/12/09 10:39:54;;;;;;;39.93;21.30;;;;;;;;;;749560;186;919374;-60
2022/12/09 10:44:52;;;;;;;40.20;22.17;;;;;;;;;;735497;186;919423;-62
2022/12/09 10:47:17;;;;;;;50.17;33.57;;;;;;;;;;735608;190;917132;-62
2022/12/09 10:49:43;;;;;;;29.83;17.83;;;;;;;;;;735059;189;630450;-62
2022/12/09 10:52:09;;;;;;;31.23;19.53;;;;;;;;;;744827;186;916773;-61
2022/12/09 10:54:36;;;;;;;35.43;23.40;;;;;;;;;;748204;186;818159;-62
2022/12/09 10:57:02;;;;;;;29.80;17.37;;;;;;;;;;741610;190;914640;-62
2022/12/09 10:59:29;;;;;;;31.23;18.90;;;;;;;;;;736182;187;919291;-62
2022/12/09 11:01:57;;;;;;;31.87;21.77;;;;;;;;;;736920;188;917808;-64
2022/12/09 11:04:24;;;;;;;51.00;29.43;;;;;;;;;;749176;187;879900;-62
2022/12/09 11:06:50;;;;;;;91.90;41.10;;;;;;;;;;741454;187;916032;-62
2022/12/09 11:09:16;;;;;;;56.53;30.10;;;;;;;;;;738708;186;912883;-62
2022/12/09 11:11:42;;;;;;;68.50;40.40;;;;;;;;;;737686;187;930365;-61
2022/12/09 11:14:22;;;;;;;63.27;31.70;;;;;;;;;;749811;187;824467;-63
2022/12/09 11:16:48;;;;;;;43.53;21.23;;;;;;;;;;744159;187;917977;-64
2022/12/09 11:19:13;;;;;;;25.10;16.67;;;;;;;;;;739241;186;921382;-63
2022/12/09 11:21:39;;;;;;;25.93;16.53;;;;;;;;;;733977;189;933043;-63
2022/12/09 11:24:05;;;;;;;29.70;18.50;;;;;;;;;;740750;188;918501;-63
2022/12/09 11:26:31;;;;;;;33.30;19.90;;;;;;;;;;738645;186;821356;-63
2022/12/09 11:28:58;;;;;;;20.17;11.33;;;;;;;;;;737896;186;821373;-62
2022/12/09 11:31:23;;;;;;;31.60;17.93;;;;;;;;;;746667;186;916768;-63
2022/12/09 11:33:49;;;;;;;28.30;17.27;;;;;;;;;;735881;186;920224;-63
2022/12/09 11:36:17;;;;;;;25.95;16.25;;;;;;;;;;728697;190;937459;-64
2022/12/09 11:38:43;;;;;;;24.80;12.50;;;;;;;;;;733684;188;917312;-63
2022/12/09 11:43:55;;;;;;;30.33;19.73;;;;;;;;;;750051;185;917541;-63
2022/12/09 11:46:21;;;;;;;25.60;16.87;;;;;;;;;;742351;187;919471;-62
2022/12/09 11:48:49;;;;;;;29.77;19.33;;;;;;;;;;743140;188;919817;-65
2022/12/09 11:51:17;;;;;;;30.17;18.27;;;;;;;;;;737390;189;919097;-63
2022/12/09 11:53:42;;;;;;;28.03;17.97;;;;;;;;;;744508;187;918561;-64
2022/12/09 11:56:11;;;;;;;38.40;22.33;;;;;;;;;;747838;188;918367;-64
2022/12/09 11:58:37;;;;;;;34.93;22.73;;;;;;;;;;753592;186;902141;-66
2022/12/09 12:01:03;;;;;;;134.43;50.77;;;;;;;;;;740369;190;921357;-64
2022/12/09 12:03:29;;;;;;;56.40;29.17;;;;;;;;;;741529;187;918876;-67
2022/12/09 12:05:55;;;;;;;32.70;22.03;;;;;;;;;;740871;186;927190;-65
2022/12/09 12:08:22;;;;;;;20.77;14.20;;;;;;;;;;751232;187;817677;-60
2022/12/09 12:10:50;;;;;;;22.97;13.07;;;;;;;;;;731601;190;920746;-64
2022/12/09 12:13:16;;;;;;;36.50;21.77;;;;;;;;;;735597;190;919677;-59
2022/12/09 12:15:46;;;;;;;29.23;17.37;;;;;;;;;;731413;186;918072;-64
2022/12/09 12:18:12;;;;;;;30.60;19.33;;;;;;;;;;729758;190;918751;-66
2022/12/09 12:20:40;;;;;;;23.37;15.30;;;;;;;;;;723448;193;815896;-59
2022/12/09 12:23:11;;;;;;;36.37;21.47;;;;;;;;;;740358;186;914065;-59
2022/12/09 12:25:40;;;;;;;47.10;27.37;;;;;;;;;;741165;187;917343;-64
2022/12/09 12:28:12;;;;;;;28.50;17.37;;;;;;;;;;747424;186;904009;-59
2022/12/09 12:30:40;;;;;;;28.93;18.97;;;;;;;;;;727902;190;914577;-59
2022/12/09 12:33:25;;;;;;;35.23;22.00;;;;;;;;;;745655;186;916739;-64
2022/12/09 12:35:51;;;;;;;25.87;14.50;;;;;;;;;;736922;186;919061;-60
2022/12/09 12:38:30;;;;;;;33.60;19.73;;;;;;;;;;745305;186;918548;-64
2022/12/09 12:41:07;;;;;;;41.30;21.97;;;;;;;;;;741248;187;798346;-64
2022/12/09 12:46:20;;;;;;;33.50;21.60;;;;;;;;;;738862;186;918624;-60
2022/12/09 12:48:47;;;;;;;26.43;16.20;;;;;;;;;;750179;186;799425;-60
2022/12/09 12:51:14;;;;;;;42.40;26.00;;;;;;;;;;749128;186;633916;-59
2022/12/09 12:53:40;;;;;;;29.10;16.07;;;;;;;;;;745894;185;716253;-60
2022/12/09 12:56:06;;;;;;;37.60;18.60;;;;;;;;;;755314;186;630038;-64
2022/12/09 12:58:32;;;;;;;48.45;27.13;;;;;;;;;;737787;189;818657;-59
2022/12/09 13:01:04;;;;;;;53.77;27.43;;;;;;;;;;732240;190;842600;-59
2022/12/09 13:03:42;;;;;;;49.67;33.60;;;;;;;;;;731504;190;906270;-64
2022/12/09 13:06:08;;;;;;;46.20;26.17;;;;;;;;;;747042;186;812099;-59
2022/12/09 13:08:34;;;;;;;84.23;42.23;;;;;;;;;;749745;186;914822;-64
2022/12/09 13:11:00;;;;;;;44.37;27.50;;;;;;;;;;742980;187;915046;-64
2022/12/09 13:13:31;;;;;;;45.33;28.48;;;;;;;;;;743576;187;926628;-60
2022/12/09 13:15:57;;;;;;;48.63;29.90;;;;;;;;;;753418;186;812151;-60
2022/12/09 13:18:25;;;;;;;20.87;14.50;;;;;;;;;;746718;186;917382;-65
2022/12/09 13:20:49;;;;;;;51.08;28.85;;;;;;;;;;734143;190;913889;-59
2022/12/09 13:23:30;;;;;;;46.33;25.67;;;;;;;;;;744265;186;918848;-65
2022/12/09 13:26:13;;;;;;;53.97;31.47;;;;;;;;;;740664;187;864048;-59
2022/12/09 13:28:42;;;;;;;35.20;21.17;;;;;;;;;;749702;186;818308;-65
2022/12/09 13:31:08;;;;;;;49.77;32.13;;;;;;;;;;747459;186;871407;-64
2022/12/09 13:33:33;;;;;;;37.93;22.87;;;;;;;;;;730175;190;920808;-67
2022/12/09 13:35:59;;;;;;;36.60;19.97;;;;;;;;;;735617;190;920577;-60
2022/12/09 13:38:27;;;;;;;36.78;19.42;;;;;;;;;;750257;186;919358;-61
2022/12/09 13:40:52;;;;;;;34.30;20.60;;;;;;;;;;746666;186;816663;-60
2022/12/09 13:43:20;;;;;;;42.53;23.57;;;;;;;;;;743036;186;914567;-61
2022/12/09 13:45:46;;;;;;;32.22;18.70;;;;;;;;;;746420;186;915302;-60
2022/12/09 13:48:27;;;;;;;39.70;24.93;;;;;;;;;;749452;186;916679;-63
2022/12/09 13:50:56;;;;;;;39.07;20.47;;;;;;;;;;745830;186;909939;-59
2022/12/09 13:53:34;;;;;;;41.23;23.33;;;;;;;;;;740385;186;918313;-64
2022/12/09 13:56:01;;;;;;;51.40;30.77;;;;;;;;;;752186;186;919000;-64
2022/12/09 13:58:42;;;;;;;47.13;26.10;;;;;;;;;;750113;185;922479;-64
2022/12/09 14:01:25;;;;;;;52.83;29.30;;;;;;;;;;746129;186;919806;-64
2022/12/09 14:03:53;;;;;;;55.73;34.50;;;;;;;;;;746541;186;918265;-69
2022/12/09 14:06:23;;;;;;;53.93;29.33;;;;;;;;;;753071;186;745397;-60
2022/12/09 14:08:49;;;;;;;51.37;33.23;;;;;;;;;;736286;189;912674;-59